Station Historical Data
Daily Summary for March 27, 2017 Units:  Metric    English   Both
« Previous Day
Next Day »
Daily Weekly Monthly Yearly Custom
  High: Low: Average:
Temperature: 12 °C 7.3 °C 9.5 °C
Dew Point: 9.7 °C 6.1 °C 7.4 °C
Humidity: 93% 81% 87%
Wind Speed: 16.1km/h 0km/h 6.9km/h
Wind Gust: 25.7km/h - -
Wind- - SSW
Pressure: 1014.8 hPa 1011.7 hPa -
Precipitation: 0 mm    
Historical Graphs
 
 
Tabular Data for March 27, 2017
Time Temperature Dew Point Pressure Wind Wind Speed Wind Gust Humidity Rainfall Rate (Hourly)
00:04 9.1 °C 7 °C 1014.8 hPa SW 4.8 km/h 6.4 km/h 87% 0.51 mm
00:09 9.2 °C 7.1 °C 1014.8 hPa South 4.8 km/h 12.9 km/h 87% 0.51 mm
00:14 9.2 °C 7.1 °C 1014.4 hPa South 6.4 km/h 12.9 km/h 87% 0.25 mm
00:19 9.2 °C 6.9 °C 1014.4 hPa SSW 8 km/h 11.3 km/h 86% 0.25 mm
00:24 9.3 °C 7.1 °C 1014.4 hPa SSW 6.4 km/h 12.9 km/h 86% 0.25 mm
00:29 9.3 °C 7.1 °C 1014.4 hPa South 6.4 km/h 12.9 km/h 86% 0 mm
00:34 9.3 °C 6.9 °C 1014.4 hPa South 6.4 km/h 12.9 km/h 85% 0 mm
00:39 9.4 °C 7 °C 1014.4 hPa South 3.2 km/h 17.7 km/h 85% 0 mm
00:44 9.4 °C 7.1 °C 1014.4 hPa SSW 8 km/h 14.5 km/h 85% 0 mm
00:49 9.4 °C 7.1 °C 1014.1 hPa SSW 11.3 km/h 12.9 km/h 85% 0 mm
00:54 9.4 °C 6.9 °C 1014.1 hPa SSE 6.4 km/h 11.3 km/h 84% 0 mm
00:59 9.3 °C 6.8 °C 1014.1 hPa South 6.4 km/h 11.3 km/h 84% 0 mm
01:04 9.3 °C 6.7 °C 1013.8 hPa South 6.4 km/h 12.9 km/h 84% 0 mm
01:09 9.3 °C 6.7 °C 1013.8 hPa South 6.4 km/h 14.5 km/h 84% 0 mm
01:14 9.3 °C 6.7 °C 1013.8 hPa South 6.4 km/h 14.5 km/h 84% 0 mm
01:19 9.3 °C 6.8 °C 1013.8 hPa SSW 4.8 km/h 19.3 km/h 84% 0 mm
01:24 9.4 °C 6.8 °C 1013.8 hPa South 8 km/h 19.3 km/h 84% 0 mm
01:29 9.4 °C 6.9 °C 1013.8 hPa South 6.4 km/h 14.5 km/h 84% 0 mm
01:34 9.4 °C 6.9 °C 1013.4 hPa South 6.4 km/h 11.3 km/h 84% 0 mm
01:39 9.4 °C 6.9 °C 1013.4 hPa SSE 4.8 km/h 12.9 km/h 84% 0 mm
01:44 9.4 °C 6.8 °C 1013.4 hPa SSE 6.4 km/h 11.3 km/h 84% 0 mm
01:49 9.4 °C 6.8 °C 1013.4 hPa South 4.8 km/h 11.3 km/h 84% 0 mm
01:54 9.4 °C 6.8 °C 1013.4 hPa South 6.4 km/h 11.3 km/h 84% 0 mm
01:59 9.4 °C 6.7 °C 1013.4 hPa South 6.4 km/h 12.9 km/h 83% 0 mm
02:04 9.5 °C 6.8 °C 1013.4 hPa South 6.4 km/h 12.9 km/h 83% 0 mm
02:09 9.5 °C 6.8 °C 1013.4 hPa SSW 8 km/h 9.7 km/h 83% 0 mm
02:14 9.5 °C 6.8 °C 1013.1 hPa South 8 km/h 14.5 km/h 83% 0 mm
02:19 9.5 °C 6.8 °C 1013.1 hPa South 3.2 km/h 9.7 km/h 83% 0 mm
02:24 9.4 °C 6.7 °C 1013.1 hPa South 4.8 km/h 9.7 km/h 83% 0 mm
02:29 9.4 °C 6.7 °C 1013.1 hPa South 4.8 km/h 9.7 km/h 83% 0 mm
02:34 9.4 °C 6.7 °C 1013.1 hPa South 4.8 km/h 11.3 km/h 83% 0 mm
02:39 9.5 °C 6.8 °C 1013.1 hPa SSW 3.2 km/h 11.3 km/h 83% 0 mm
02:44 9.5 °C 6.8 °C 1013.1 hPa SSW 6.4 km/h 8 km/h 83% 0 mm
02:49 9.6 °C 6.9 °C 1013.1 hPa South 4.8 km/h 14.5 km/h 83% 0 mm
02:54 9.7 °C 7 °C 1013.1 hPa SSW 4.8 km/h 9.7 km/h 83% 0 mm
02:59 9.8 °C 7 °C 1013.1 hPa South 4.8 km/h 11.3 km/h 83% 0 mm
03:04 9.8 °C 7 °C 1012.8 hPa South 6.4 km/h 14.5 km/h 83% 0 mm
03:09 9.8 °C 7 °C 1012.8 hPa South 6.4 km/h 14.5 km/h 83% 0 mm
03:14 9.8 °C 7 °C 1012.8 hPa SSW 8 km/h 11.3 km/h 83% 0 mm
03:19 9.8 °C 7.1 °C 1012.4 hPa SSW 6.4 km/h 12.9 km/h 83% 0 mm
03:24 9.8 °C 7.1 °C 1012.4 hPa South 3.2 km/h 9.7 km/h 83% 0 mm
03:29 9.9 °C 7.1 °C 1012.4 hPa South 6.4 km/h 11.3 km/h 83% 0 mm
03:34 9.9 °C 7.1 °C 1012.4 hPa South 6.4 km/h 11.3 km/h 83% 0 mm
03:39 9.9 °C 7.4 °C 1012.4 hPa South 6.4 km/h 11.3 km/h 84% 0 mm
03:44 10 °C 7.2 °C 1012.4 hPa South 6.4 km/h 11.3 km/h 83% 0 mm
03:49 10.1 °C 7.3 °C 1012.1 hPa South 6.4 km/h 11.3 km/h 83% 0 mm
03:54 10.1 °C 7.3 °C 1012.1 hPa South 4.8 km/h 11.3 km/h 83% 0 mm
03:59 10.2 °C 7.4 °C 1012.1 hPa SSW 1.6 km/h 11.3 km/h 83% 0 mm
04:04 10.1 °C 7.3 °C 1012.1 hPa South 4.8 km/h 11.3 km/h 83% 0 mm
04:09 10.1 °C 7.3 °C 1012.4 hPa SSW 4.8 km/h 9.7 km/h 83% 0 mm
04:14 10.2 °C 7.4 °C 1012.1 hPa South 4.8 km/h 11.3 km/h 83% 0 mm
04:19 10.2 °C 7.3 °C 1012.1 hPa SSW 3.2 km/h 9.7 km/h 82% 0.25 mm
04:24 10.2 °C 7.3 °C 1012.1 hPa SSW 4.8 km/h 9.7 km/h 82% 0.25 mm
04:29 10.3 °C 7.4 °C 1012.1 hPa SSE 6.4 km/h 14.5 km/h 82% 0.25 mm
04:34 10.3 °C 7.4 °C 1012.1 hPa SSW 6.4 km/h 14.5 km/h 82% 0.25 mm
04:39 10.3 °C 7.3 °C 1012.1 hPa South 6.4 km/h 12.9 km/h 82% 0.25 mm
04:44 10.3 °C 7.4 °C 1012.1 hPa South 6.4 km/h 22.5 km/h 82% 0.25 mm
04:49 10.3 °C 7.2 °C 1012.1 hPa South 8 km/h 22.5 km/h 81% 0.25 mm
04:54 10.4 °C 7.3 °C 1012.1 hPa South 9.7 km/h 19.3 km/h 81% 0.25 mm
04:59 10.3 °C 7.2 °C 1012.1 hPa SSW 9.7 km/h 12.9 km/h 81% 0.25 mm
05:04 10.2 °C 7.1 °C 1012.1 hPa South 8 km/h 14.5 km/h 81% 0.25 mm
05:09 10.1 °C 7 °C 1011.7 hPa South 8 km/h 14.5 km/h 81% 0.25 mm
05:14 10.1 °C 7 °C 1011.7 hPa South 8 km/h 14.5 km/h 81% 0.25 mm
05:19 10.1 °C 7 °C 1011.7 hPa SSW 8 km/h 12.9 km/h 81% 0 mm
05:24 10.1 °C 7 °C 1011.7 hPa South 9.7 km/h 20.9 km/h 81% 0 mm
05:29 10.2 °C 7.1 °C 1011.7 hPa SSW 11.3 km/h 12.9 km/h 81% 0 mm
05:34 10.2 °C 7.1 °C 1012.1 hPa South 6.4 km/h 12.9 km/h 81% 0 mm
05:39 10.3 °C 7.2 °C 1011.7 hPa South 6.4 km/h 12.9 km/h 81% 0 mm
05:44 10.3 °C 7.2 °C 1012.1 hPa South 6.4 km/h 12.9 km/h 81% 0 mm
05:49 10.3 °C 7.2 °C 1012.1 hPa South 6.4 km/h 16.1 km/h 81% 0 mm
05:54 10.5 °C 7.4 °C 1012.1 hPa South 9.7 km/h 14.5 km/h 81% 0 mm
05:59 10.5 °C 7.4 °C 1012.1 hPa SSW 6.4 km/h 14.5 km/h 81% 0 mm
06:04 10.5 °C 7.4 °C 1012.1 hPa SSW 8 km/h 14.5 km/h 81% 0 mm
06:09 10.5 °C 7.4 °C 1012.1 hPa South 8 km/h 16.1 km/h 81% 0 mm
06:14 10.5 °C 7.4 °C 1012.1 hPa SSW 8 km/h 16.1 km/h 81% 0 mm
06:19 10.5 °C 7.4 °C 1012.1 hPa SSE 4.8 km/h 12.9 km/h 81% 0 mm
06:24 10.6 °C 7.4 °C 1012.1 hPa SW 9.7 km/h 16.1 km/h 81% 0 mm
06:29 10.6 °C 7.5 °C 1012.1 hPa SW 8 km/h 14.5 km/h 81% 0 mm
06:34 10.7 °C 7.6 °C 1012.1 hPa South 6.4 km/h 17.7 km/h 81% 0 mm
06:39 10.7 °C 7.6 °C 1012.1 hPa South 8 km/h 17.7 km/h 81% 0 mm
06:44 10.7 °C 7.6 °C 1012.1 hPa South 8 km/h 17.7 km/h 81% 0 mm
06:49 10.6 °C 7.4 °C 1012.1 hPa South 8 km/h 17.7 km/h 81% 0 mm
06:54 10.6 °C 7.4 °C 1012.1 hPa South 8 km/h 14.5 km/h 81% 0 mm
06:59 10.6 °C 7.4 °C 1012.1 hPa South 6.4 km/h 9.7 km/h 81% 0 mm
07:04 10.6 °C 7.4 °C 1012.1 hPa SSW 9.7 km/h 14.5 km/h 81% 0 mm
07:09 10.6 °C 7.4 °C 1012.1 hPa SSE 6.4 km/h 16.1 km/h 81% 0 mm
07:14 10.5 °C 7.4 °C 1012.1 hPa SSW 11.3 km/h 14.5 km/h 81% 0 mm
07:19 10.5 °C 7.4 °C 1012.4 hPa South 11.3 km/h 11.3 km/h 81% 0 mm
07:24 10.4 °C 7.5 °C 1012.4 hPa ESE 8 km/h 11.3 km/h 82% 0 mm
07:29 10.4 °C 7.5 °C 1012.4 hPa SSW 9.7 km/h 11.3 km/h 82% 0 mm
07:34 10.4 °C 7.5 °C 1012.4 hPa SSW 6.4 km/h 11.3 km/h 82% 0 mm
07:39 10.5 °C 7.6 °C 1012.4 hPa SSW 11.3 km/h 14.5 km/h 82% 0 mm
07:44 10.6 °C 7.6 °C 1012.4 hPa SSW 6.4 km/h 14.5 km/h 82% 0 mm
07:49 10.7 °C 7.7 °C 1012.4 hPa South 8 km/h 14.5 km/h 82% 0 mm
07:54 10.8 °C 7.9 °C 1012.4 hPa South 8 km/h 17.7 km/h 82% 0 mm
07:59 10.9 °C 7.8 °C 1012.8 hPa SSW 8 km/h 17.7 km/h 81% 0 mm
08:04 10.9 °C 7.8 °C 1012.8 hPa South 9.7 km/h 16.1 km/h 81% 0 mm
08:09 10.9 °C 7.8 °C 1012.8 hPa SSW 8 km/h 16.1 km/h 81% 0 mm
08:14 11 °C 8.1 °C 1012.8 hPa SSW 8 km/h 16.1 km/h 82% 0 mm
08:19 11.1 °C 8.1 °C 1012.8 hPa SSW 8 km/h 14.5 km/h 82% 0 mm
08:24 11.1 °C 8.2 °C 1012.8 hPa South 8 km/h 12.9 km/h 82% 0 mm
08:29 11.1 °C 8.2 °C 1012.8 hPa South 4.8 km/h 11.3 km/h 82% 0 mm
08:34 11.1 °C 8.2 °C 1012.8 hPa South 4.8 km/h 11.3 km/h 82% 0 mm
08:39 11.1 °C 8.2 °C 1012.8 hPa SSE 6.4 km/h 14.5 km/h 82% 0 mm
08:44 11.1 °C 8.1 °C 1012.8 hPa South 6.4 km/h 14.5 km/h 82% 0 mm
08:49 11.1 °C 8.3 °C 1012.8 hPa SSW 6.4 km/h 11.3 km/h 83% 0 mm
08:54 11.1 °C 8.3 °C 1012.4 hPa SSW 4.8 km/h 12.9 km/h 83% 0 mm
08:59 11.1 °C 8.3 °C 1012.4 hPa WSW 4.8 km/h 11.3 km/h 83% 0 mm
09:04 11.1 °C 8.5 °C 1012.4 hPa South 3.2 km/h 11.3 km/h 84% 0 mm
09:09 11.1 °C 8.5 °C 1012.4 hPa SSW 9.7 km/h 11.3 km/h 84% 0 mm
09:14 11.2 °C 8.6 °C 1012.4 hPa SSW 6.4 km/h 11.3 km/h 84% 0 mm
09:19 11.2 °C 8.6 °C 1012.4 hPa SSW 4.8 km/h 11.3 km/h 84% 0 mm
09:24 11.3 °C 8.7 °C 1012.1 hPa SSW 4.8 km/h 11.3 km/h 84% 0 mm
09:29 11.5 °C 8.9 °C 1012.1 hPa SSW 4.8 km/h 11.3 km/h 84% 0 mm
09:34 11.6 °C 9 °C 1012.1 hPa SSW 4.8 km/h 9.7 km/h 84% 0 mm
09:39 11.7 °C 8.9 °C 1012.1 hPa SSW 6.4 km/h 9.7 km/h 83% 0 mm
09:44 11.8 °C 9.1 °C 1012.1 hPa South 8 km/h 14.5 km/h 83% 0 mm
09:49 11.9 °C 9.1 °C 1012.1 hPa SSW 6.4 km/h 14.5 km/h 83% 0 mm
09:54 11.9 °C 9.2 °C 1012.4 hPa SW 8 km/h 14.5 km/h 83% 0 mm
09:59 12 °C 9.2 °C 1012.1 hPa South 6.4 km/h 12.9 km/h 83% 0 mm
10:04 11.9 °C 9.2 °C 1012.4 hPa SSW 6.4 km/h 12.9 km/h 83% 0 mm
10:09 11.8 °C 9.2 °C 1012.4 hPa SSW 12.9 km/h 17.7 km/h 84% 0 mm
10:14 11.7 °C 9.2 °C 1012.4 hPa South 8 km/h 17.7 km/h 85% 0 mm
10:19 11.7 °C 9.3 °C 1012.4 hPa SSW 6.4 km/h 17.7 km/h 85% 0 mm
10:24 11.7 °C 9.2 °C 1012.4 hPa SSW 6.4 km/h 12.9 km/h 85% 0 mm
10:29 11.7 °C 9.2 °C 1012.4 hPa SSW 6.4 km/h 14.5 km/h 85% 0 mm
10:34 11.6 °C 9.3 °C 1012.8 hPa SSW 6.4 km/h 14.5 km/h 86% 0 mm
10:39 11.6 °C 9.3 °C 1012.8 hPa SSW 4.8 km/h 12.9 km/h 86% 0 mm
10:44 11.6 °C 9.3 °C 1012.8 hPa South 4.8 km/h 11.3 km/h 86% 0 mm
10:49 11.6 °C 9.4 °C 1012.8 hPa SSW 6.4 km/h 20.9 km/h 87% 0 mm
10:54 11.4 °C 9.4 °C 1012.8 hPa WSW 4.8 km/h 17.7 km/h 88% 0 mm
10:59 11.3 °C 9.6 °C 1012.8 hPa SSW 4.8 km/h 14.5 km/h 89% 0 mm
11:04 11.2 °C 9.5 °C 1012.8 hPa SW 6.4 km/h 16.1 km/h 89% 0 mm
11:09 11.3 °C 9.7 °C 1012.8 hPa SSW 12.9 km/h 17.7 km/h 90% 0 mm
11:14 11.2 °C 9.6 °C 1013.1 hPa South 11.3 km/h 20.9 km/h 90% 0 mm
11:19 11.2 °C 9.6 °C 1013.1 hPa SW 9.7 km/h 20.9 km/h 90% 0 mm
11:24 11.1 °C 9.6 °C 1013.1 hPa SW 9.7 km/h 20.9 km/h 90% 0 mm
11:29 11.1 °C 9.7 °C 1013.1 hPa SW 9.7 km/h 20.9 km/h 91% 0 mm
11:34 10.9 °C 9.6 °C 1013.1 hPa SW 11.3 km/h 25.7 km/h 91% 0 mm
11:39 10.7 °C 9.3 °C 1013.1 hPa SW 11.3 km/h 25.7 km/h 91% 0 mm
11:44 10.6 °C 9.2 °C 1013.1 hPa WSW 11.3 km/h 16.1 km/h 91% 0 mm
11:49 10.3 °C 8.9 °C 1013.1 hPa SW 11.3 km/h 22.5 km/h 91% 0 mm
11:54 9.9 °C 8.6 °C 1013.1 hPa SW 11.3 km/h 22.5 km/h 91% 0 mm
11:59 9.7 °C 8.3 °C 1013.1 hPa SW 11.3 km/h 22.5 km/h 91% 0 mm
12:04 9.5 °C 8.1 °C 1013.1 hPa WSW 11.3 km/h 17.7 km/h 91% 0 mm
12:09 9.5 °C 8.3 °C 1013.1 hPa WSW 4.8 km/h 17.7 km/h 92% 0 mm
12:14 9.6 °C 8.3 °C 1013.1 hPa SW 9.7 km/h 17.7 km/h 92% 0 mm
12:19 9.4 °C 8.2 °C 1013.1 hPa SW 6.4 km/h 14.5 km/h 92% 0 mm
12:24 9.1 °C 7.9 °C 1013.4 hPa SW 9.7 km/h 20.9 km/h 92% 0 mm
12:29 8.7 °C 7.4 °C 1013.4 hPa SW 9.7 km/h 20.9 km/h 92% 0 mm
12:34 8.7 °C 7.4 °C 1013.4 hPa SW 9.7 km/h 20.9 km/h 92% 0 mm
12:39 8.6 °C 7.6 °C 1013.4 hPa SW 11.3 km/h 17.7 km/h 93% 0 mm
12:44 8.4 °C 7.2 °C 1013.1 hPa SW 9.7 km/h 17.7 km/h 92% 0 mm
12:49 8.3 °C 7.1 °C 1013.4 hPa SW 9.7 km/h 17.7 km/h 92% 0 mm
12:54 8.1 °C 7.1 °C 1013.1 hPa SW 9.7 km/h 17.7 km/h 93% 0 mm
12:59 8.1 °C 7 °C 1013.4 hPa SW 9.7 km/h 19.3 km/h 93% 0 mm
13:04 7.8 °C 6.6 °C 1013.1 hPa WSW 9.7 km/h 22.5 km/h 92% 0 mm
13:09 7.8 °C 6.6 °C 1013.4 hPa SW 9.7 km/h 22.5 km/h 92% 0 mm
13:14 7.7 °C 6.6 °C 1013.4 hPa SW 6.4 km/h 20.9 km/h 93% 0 mm
13:19 7.3 °C 6.1 °C 1013.4 hPa SW 11.3 km/h 19.3 km/h 92% 0 mm
13:24 7.3 °C 6.3 °C 1013.4 hPa SW 11.3 km/h 20.9 km/h 93% 0 mm
13:29 7.3 °C 6.3 °C 1013.1 hPa SW 9.7 km/h 20.9 km/h 93% 0 mm
13:34 7.4 °C 6.3 °C 1013.1 hPa SW 9.7 km/h 20.9 km/h 93% 0 mm
13:39 7.4 °C 6.4 °C 1013.4 hPa WSW 9.7 km/h 19.3 km/h 93% 0 mm
13:44 7.4 °C 6.3 °C 1013.1 hPa SSE 6.4 km/h 17.7 km/h 93% 0 mm
13:49 7.4 °C 6.4 °C 1013.1 hPa WSW 14.5 km/h 16.1 km/h 93% 0 mm
13:54 7.4 °C 6.4 °C 1013.1 hPa West 6.4 km/h 19.3 km/h 93% 0 mm
13:59 7.4 °C 6.4 °C 1013.1 hPa SW 9.7 km/h 19.3 km/h 93% 0 mm
14:04 7.3 °C 6.1 °C 1013.1 hPa SW 11.3 km/h 20.9 km/h 92% 0 mm
14:09 7.3 °C 6.3 °C 1013.1 hPa SW 11.3 km/h 20.9 km/h 93% 0 mm
14:14 7.4 °C 6.4 °C 1013.1 hPa WSW 11.3 km/h 22.5 km/h 93% 0 mm
14:19 7.5 °C 6.4 °C 1013.4 hPa WSW 11.3 km/h 17.7 km/h 93% 0 mm
14:24 7.5 °C 6.3 °C 1013.4 hPa WSW 8 km/h 20.9 km/h 92% 0 mm
14:29 7.6 °C 6.4 °C 1013.4 hPa SW 9.7 km/h 17.7 km/h 92% 0 mm
14:34 7.7 °C 6.4 °C 1013.1 hPa SW 9.7 km/h 17.7 km/h 92% 0 mm
14:39 7.7 °C 6.4 °C 1013.4 hPa WSW 9.7 km/h 24.1 km/h 92% 0 mm
14:44 7.6 °C 6.4 °C 1013.4 hPa West 4.8 km/h 19.3 km/h 92% 0 mm
14:49 7.6 °C 6.3 °C 1013.4 hPa SW 16.1 km/h 17.7 km/h 92% 0 mm
14:54 7.5 °C 6.3 °C 1013.4 hPa SW 11.3 km/h 19.3 km/h 92% 0 mm
14:59 7.5 °C 6.3 °C 1013.1 hPa SW 8 km/h 16.1 km/h 92% 0 mm
15:04 7.6 °C 6.4 °C 1013.1 hPa SW 8 km/h 20.9 km/h 92% 0 mm
15:09 7.7 °C 6.4 °C 1013.1 hPa SW 8 km/h 20.9 km/h 92% 0 mm
15:14 7.6 °C 6.4 °C 1013.1 hPa SW 8 km/h 17.7 km/h 92% 0 mm
15:19 7.7 °C 6.4 °C 1013.4 hPa SW 9.7 km/h 19.3 km/h 92% 0 mm
15:24 7.7 °C 6.5 °C 1013.1 hPa SW 12.9 km/h 16.1 km/h 92% 0 mm
15:29 7.7 °C 6.5 °C 1013.1 hPa WSW 8 km/h 20.9 km/h 92% 0 mm
15:34 7.7 °C 6.5 °C 1013.1 hPa SW 9.7 km/h 20.9 km/h 92% 0 mm
15:39 7.9 °C 6.7 °C 1013.1 hPa WSW 16.1 km/h 22.5 km/h 92% 0 mm
15:44 8.3 °C 7.3 °C 1013.1 hPa SSW 6.4 km/h 17.7 km/h 93% 0 mm
15:49 8.7 °C 7.4 °C 1013.1 hPa WSW 11.3 km/h 17.7 km/h 92% 0 mm
15:54 9 °C 7.6 °C 1013.1 hPa SW 9.7 km/h 17.7 km/h 91% 0 mm
15:59 9.4 °C 7.9 °C 1013.1 hPa West 6.4 km/h 17.7 km/h 90% 0 mm
16:04 9.8 °C 8.1 °C 1013.1 hPa SW 9.7 km/h 19.3 km/h 89% 0 mm
16:09 9.8 °C 7.9 °C 1013.1 hPa SW 9.7 km/h 19.3 km/h 88% 0 mm
16:14 9.9 °C 8.1 °C 1013.1 hPa SW 8 km/h 19.3 km/h 88% 0 mm
16:19 9.8 °C 7.7 °C 1013.1 hPa SW 8 km/h 17.7 km/h 87% 0 mm
16:24 9.7 °C 7.6 °C 1012.8 hPa SW 8 km/h 17.7 km/h 87% 0 mm
16:29 9.5 °C 7.4 °C 1013.1 hPa SW 8 km/h 20.9 km/h 87% 0 mm
16:34 9.4 °C 7.3 °C 1013.1 hPa SSW 9.7 km/h 17.7 km/h 87% 0 mm
16:39 9.1 °C 7 °C 1012.8 hPa South 6.4 km/h 14.5 km/h 87% 0 mm
16:44 8.9 °C 6.9 °C 1013.1 hPa SW 9.7 km/h 16.1 km/h 87% 0 mm
16:49 8.8 °C 6.9 °C 1013.1 hPa WSW 12.9 km/h 16.1 km/h 88% 0 mm
16:54 8.9 °C 7.2 °C 1012.8 hPa West 8 km/h 14.5 km/h 89% 0 mm
16:59 9.1 °C 7.4 °C 1013.1 hPa SW 11.3 km/h 14.5 km/h 89% 0 mm
17:04 9.3 °C 7.6 °C 1012.8 hPa WSW 8 km/h 17.7 km/h 89% 0 mm
17:09 9.3 °C 7.6 °C 1013.1 hPa WSW 9.7 km/h 20.9 km/h 89% 0 mm
17:14 9.3 °C 7.4 °C 1012.8 hPa WSW 9.7 km/h 20.9 km/h 88% 0 mm
17:19 9.2 °C 7.5 °C 1012.8 hPa SW 9.7 km/h 20.9 km/h 89% 0 mm
17:24 9.3 °C 7.6 °C 1012.8 hPa SW 9.7 km/h 20.9 km/h 89% 0 mm
17:29 9.3 °C 7.6 °C 1012.8 hPa WSW 6.4 km/h 20.9 km/h 89% 0 mm
17:34 9.4 °C 7.7 °C 1012.8 hPa WSW 9.7 km/h 17.7 km/h 89% 0 mm
17:39 9.4 °C 7.7 °C 1012.8 hPa SW 9.7 km/h 17.7 km/h 89% 0 mm
17:44 9.5 °C 7.9 °C 1012.8 hPa SW 9.7 km/h 19.3 km/h 90% 0 mm
17:49 9.7 °C 8.2 °C 1012.8 hPa WSW 9.7 km/h 17.7 km/h 90% 0 mm
17:54 10.1 °C 8.5 °C 1012.8 hPa WSW 6.4 km/h 14.5 km/h 90% 0 mm
17:59 10.2 °C 8.4 °C 1012.8 hPa SW 12.9 km/h 16.1 km/h 89% 0 mm
18:04 10.2 °C 8.4 °C 1012.8 hPa WSW 9.7 km/h 17.7 km/h 89% 0 mm
18:09 10.2 °C 8.3 °C 1013.1 hPa WSW 9.7 km/h 20.9 km/h 88% 0 mm
18:14 10.2 °C 8.3 °C 1012.8 hPa SW 11.3 km/h 20.9 km/h 88% 0 mm
18:19 10.2 °C 8.3 °C 1012.8 hPa WSW 9.7 km/h 20.9 km/h 88% 0 mm
18:24 10.1 °C 8.2 °C 1013.1 hPa WSW 9.7 km/h 22.5 km/h 88% 0 mm
18:29 10.1 °C 8.2 °C 1012.8 hPa WSW 11.3 km/h 22.5 km/h 88% 0 mm
18:34 9.9 °C 8.1 °C 1013.1 hPa SW 11.3 km/h 22.5 km/h 88% 0 mm
18:39 9.9 °C 8.1 °C 1013.1 hPa SW 11.3 km/h 22.5 km/h 88% 0 mm
18:44 9.9 °C 8.1 °C 1013.1 hPa SW 9.7 km/h 20.9 km/h 88% 0 mm
18:49 9.9 °C 8.1 °C 1013.1 hPa WSW 6.4 km/h 12.9 km/h 88% 0 mm
18:54 9.9 °C 8 °C 1013.1 hPa SSW 6.4 km/h 11.3 km/h 88% 0 mm
18:59 9.8 °C 7.9 °C 1013.1 hPa SW 12.9 km/h 17.7 km/h 88% 0 mm
19:04 9.7 °C 7.8 °C 1013.1 hPa South 14.5 km/h 17.7 km/h 88% 0 mm
19:09 9.7 °C 7.8 °C 1013.1 hPa WSW 6.4 km/h 16.1 km/h 88% 0 mm
19:14 9.6 °C 7.8 °C 1013.1 hPa SW 12.9 km/h 12.9 km/h 89% 0 mm
19:19 9.5 °C 7.8 °C 1013.1 hPa SW 6.4 km/h 12.9 km/h 89% 0 mm
19:24 9.4 °C 7.7 °C 1013.1 hPa WSW 4.8 km/h 12.9 km/h 89% 0 mm
19:29 9.3 °C 7.6 °C 1013.1 hPa SW 4.8 km/h 12.9 km/h 89% 0 mm
19:34 9.3 °C 7.6 °C 1013.1 hPa SW 4.8 km/h 11.3 km/h 89% 0 mm
19:39 9.3 °C 7.8 °C 1012.8 hPa SW 4.8 km/h 11.3 km/h 90% 0 mm
19:44 9.3 °C 7.7 °C 1012.8 hPa WSW 4.8 km/h 11.3 km/h 90% 0 mm
19:49 9.2 °C 7.7 °C 1013.1 hPa SW 6.4 km/h 9.7 km/h 90% 0 mm
19:54 9.3 °C 7.7 °C 1013.1 hPa SW 8 km/h 12.9 km/h 90% 0 mm
19:59 9.3 °C 7.7 °C 1013.1 hPa WSW 4.8 km/h 11.3 km/h 90% 0 mm
20:04 9.3 °C 7.7 °C 1013.1 hPa SW 6.4 km/h 9.7 km/h 90% 0 mm
20:09 9.2 °C 7.6 °C 1013.1 hPa WSW 6.4 km/h 9.7 km/h 90% 0 mm
20:14 9.1 °C 7.6 °C 1013.1 hPa WSW 3.2 km/h 11.3 km/h 90% 0 mm
20:19 9.1 °C 7.7 °C 1013.1 hPa WSW 1.6 km/h 12.9 km/h 91% 0 mm
20:24 9 °C 7.4 °C 1013.1 hPa SW 4.8 km/h 12.9 km/h 90% 0 mm
20:29 8.9 °C 7.4 °C 1013.1 hPa SW 6.4 km/h 11.3 km/h 90% 0 mm
20:34 8.8 °C 7.2 °C 1013.1 hPa SW 6.4 km/h 11.3 km/h 90% 0 mm
20:39 8.8 °C 7.4 °C 1013.1 hPa SW 4.8 km/h 9.7 km/h 91% 0 mm
20:44 8.7 °C 7.3 °C 1013.1 hPa SW 3.2 km/h 9.7 km/h 91% 0 mm
20:49 8.6 °C 7.2 °C 1013.4 hPa SW 6.4 km/h 8 km/h 91% 0 mm
20:54 8.5 °C 7.1 °C 1013.4 hPa SW 3.2 km/h 8 km/h 91% 0 mm
20:59 8.4 °C 7 °C 1013.4 hPa SW 3.2 km/h 8 km/h 91% 0 mm
21:04 8.3 °C 6.9 °C 1013.4 hPa SW 3.2 km/h 8 km/h 91% 0 mm
21:09 8.3 °C 6.9 °C 1013.4 hPa SW 3.2 km/h 8 km/h 91% 0 mm
21:14 8.3 °C 6.9 °C 1013.4 hPa Calm   3.2 km/h 91% 0 mm
21:19 8.3 °C 6.9 °C 1013.4 hPa Calm     91% 0 mm
21:24 8.2 °C 6.8 °C 1013.4 hPa Calm     91% 0 mm
21:29 8.1 °C 6.7 °C 1013.4 hPa South 1.6 km/h 4.8 km/h 91% 0 mm
21:34 8.1 °C 6.7 °C 1013.4 hPa Calm   4.8 km/h 91% 0 mm
21:39 8.2 °C 6.9 °C 1013.4 hPa South 1.6 km/h 4.8 km/h 92% 0 mm
21:44 8.1 °C 6.7 °C 1013.4 hPa Calm   4.8 km/h 91% 0 mm
21:49 7.9 °C 6.6 °C 1013.4 hPa South 1.6 km/h 1.6 km/h 91% 0 mm
21:54 7.9 °C 6.7 °C 1013.4 hPa SSW 1.6 km/h 4.8 km/h 92% 0 mm
21:59 7.8 °C 6.6 °C 1013.4 hPa SSW 1.6 km/h 4.8 km/h 92% 0 mm
22:04 7.7 °C 6.4 °C 1013.4 hPa SSW 1.6 km/h 4.8 km/h 92% 0 mm
22:09 7.8 °C 6.6 °C 1013.1 hPa SSW 1.6 km/h 3.2 km/h 92% 0 mm
22:14 7.8 °C 6.6 °C 1013.4 hPa SSW 1.6 km/h 4.8 km/h 92% 0 mm
22:19 7.9 °C 6.7 °C 1013.1 hPa SSW 4.8 km/h 6.4 km/h 92% 0 mm
22:24 8.3 °C 7.2 °C 1013.1 hPa SSW 3.2 km/h 8 km/h 93% 0 mm
22:29 8.5 °C 7.3 °C 1013.1 hPa SSW 4.8 km/h 8 km/h 92% 0 mm
22:34 8.6 °C 7.4 °C 1013.1 hPa South 3.2 km/h 6.4 km/h 92% 0 mm
22:39 8.7 °C 7.5 °C 1012.8 hPa South 3.2 km/h 6.4 km/h 92% 0 mm
22:44 8.8 °C 7.6 °C 1012.8 hPa SSW 3.2 km/h 6.4 km/h 92% 0 mm
22:49 8.8 °C 7.6 °C 1013.1 hPa Calm   6.4 km/h 92% 0 mm
22:54 8.8 °C 7.4 °C 1013.1 hPa Calm   3.2 km/h 91% 0 mm
22:59 8.7 °C 7.3 °C 1012.8 hPa Calm   3.2 km/h 91% 0 mm
23:04 8.6 °C 7.2 °C 1012.8 hPa Calm     91% 0 mm
23:09 8.4 °C 7.1 °C 1012.8 hPa Calm     91% 0 mm
23:14 8.3 °C 6.9 °C 1012.8 hPa Calm     91% 0 mm
23:19 8.2 °C 6.8 °C 1012.8 hPa Calm     91% 0 mm
23:24 8.1 °C 6.7 °C 1012.8 hPa Calm     91% 0 mm
23:29 7.9 °C 6.6 °C 1012.8 hPa Calm     91% 0 mm
23:34 7.8 °C 6.4 °C 1012.8 hPa Calm     91% 0 mm
23:39 7.8 °C 6.6 °C 1012.8 hPa Calm     92% 0 mm
23:44 7.8 °C 6.6 °C 1012.8 hPa Calm     92% 0 mm
23:49 7.8 °C 6.6 °C 1012.8 hPa Calm     92% 0 mm
23:54 7.9 °C 6.7 °C 1012.4 hPa Calm     92% 0 mm
23:59 8 °C 6.8 °C 1012.8 hPa Calm     92% 0 mm
Buffalo, New York, USA
Compliments of Weather Underground - 2.5 mb